createdAt,value
2022-09-30T00:00:07.100Z,97740.03
2022-09-30T00:01:10.302Z,97746.13
2022-09-30T00:02:12.482Z,97750.38
2022-09-30T00:03:14.386Z,97753.00
2022-09-30T00:04:20.954Z,97752.78
2022-09-30T00:05:22.668Z,97754.63
2022-09-30T00:06:27.437Z,97755.41
2022-09-30T00:07:29.220Z,97754.63
2022-09-30T00:08:31.732Z,97753.81
2022-09-30T00:09:33.568Z,97758.28
2022-09-30T00:10:35.304Z,97757.47
2022-09-30T00:11:39.221Z,97758.50
2022-09-30T00:12:41.611Z,97749.78
2022-09-30T00:13:46.156Z,97756.91
2022-09-30T00:14:47.843Z,97763.22
2022-09-30T00:15:49.601Z,97761.38
2022-09-30T00:16:51.375Z,97766.88
2022-09-30T00:17:53.084Z,97761.59
2022-09-30T00:18:57.281Z,97758.75
2022-09-30T00:19:59.012Z,97759.19
2022-09-30T00:21:01.933Z,97762.06
2022-09-30T00:22:03.705Z,97762.88
2022-09-30T00:23:05.414Z,97761.25
2022-09-30T00:24:07.902Z,97762.25
2022-09-30T00:25:09.822Z,97762.25
2022-09-30T00:26:16.005Z,97766.53
2022-09-30T00:27:18.254Z,97765.91
2022-09-30T00:28:19.947Z,97762.69
2022-09-30T00:29:21.705Z,97767.97
2022-09-30T00:30:23.428Z,97752.34
2022-09-30T00:31:29.847Z,97756.63
2022-09-30T00:32:31.677Z,97761.31
2022-09-30T00:33:34.901Z,97756.25
2022-09-30T00:34:36.827Z,97757.50
2022-09-30T00:35:38.553Z,97763.59
2022-09-30T00:36:46.933Z,97756.72
2022-09-30T00:37:48.640Z,97752.66
2022-09-30T00:38:50.361Z,97757.94
2022-09-30T00:39:52.125Z,97759.75
2022-09-30T00:40:55.702Z,97754.94
2022-09-30T00:42:01.431Z,97756.53
2022-09-30T00:43:03.151Z,97753.91
2022-09-30T00:44:45.852Z,97752.88
2022-09-30T00:45:59.655Z,97751.47
2022-09-30T00:47:01.537Z,97755.38
2022-09-30T00:48:16.841Z,97750.09
2022-09-30T00:49:25.255Z,97755.59
2022-09-30T00:50:49.620Z,97754.34
2022-09-30T00:51:57.653Z,97758.44
2022-09-30T00:53:34.378Z,97752.13
2022-09-30T00:54:36.090Z,97748.53
2022-09-30T00:56:01.721Z,97750.97
2022-09-30T00:57:08.013Z,97754.03
2022-09-30T00:58:17.997Z,97751.41
2022-09-30T00:59:27.098Z,97750.81
2022-09-30T01:00:28.870Z,97753.06
2022-09-30T01:01:32.181Z,97752.03
2022-09-30T01:02:34.018Z,97758.56
2022-09-30T01:03:45.204Z,97761.78
2022-09-30T01:04:47.184Z,97762.03
2022-09-30T01:05:51.599Z,97761.78
2022-09-30T01:06:53.947Z,97762.81
2022-09-30T01:08:00.889Z,97759.59
2022-09-30T01:09:03.673Z,97760.63
2022-09-30T01:10:05.896Z,97759.59
2022-09-30T01:11:08.462Z,97761.66
2022-09-30T01:12:16.613Z,97766.72
2022-09-30T01:13:22.327Z,97766.94
2022-09-30T01:14:27.898Z,97760.50
2022-09-30T01:16:06.921Z,97772.22
2022-09-30T01:17:44.909Z,97768.78
2022-09-30T01:19:30.884Z,97772.44
2022-09-30T01:21:37.349Z,97772.84
2022-09-30T01:23:13.021Z,97776.16
2022-09-30T01:24:23.595Z,97776.81
2022-09-30T01:26:01.695Z,97782.09
2022-09-30T01:27:30.570Z,97783.94
2022-09-30T01:29:16.202Z,97778.25
2022-09-30T01:30:22.529Z,97783.75
2022-09-30T01:31:32.417Z,97782.50
2022-09-30T01:32:53.209Z,97781.94
2022-09-30T01:34:18.773Z,97781.13
2022-09-30T01:36:16.590Z,97774.00
2022-09-30T01:37:39.176Z,97774.22
2022-09-30T01:39:21.111Z,97774.44
2022-09-30T01:40:32.839Z,97779.94
2022-09-30T01:42:07.450Z,97778.13
2022-09-30T01:43:15.316Z,97778.53
2022-09-30T01:44:39.391Z,97783.00
2022-09-30T01:45:55.475Z,97783.00
2022-09-30T01:47:27.030Z,97790.31
2022-09-30T01:49:03.908Z,97799.69
2022-09-30T01:50:24.993Z,97790.63
2022-09-30T01:51:54.241Z,97798.13
2022-09-30T01:53:15.188Z,97802.00
2022-09-30T01:54:28.363Z,97797.75
2022-09-30T01:55:46.050Z,97800.19
2022-09-30T01:57:03.167Z,97796.53
2022-09-30T01:58:30.125Z,97796.31
2022-09-30T01:59:46.228Z,97791.81
2022-09-30T02:00:55.899Z,97795.50
2022-09-30T02:02:15.197Z,97801.34
2022-09-30T02:03:27.568Z,97801.16
2022-09-30T02:04:44.960Z,97805.59
2022-09-30T02:06:05.814Z,97806.44
2022-09-30T02:07:20.796Z,97807.25
2022-09-30T02:08:41.463Z,97809.09
2022-09-30T02:10:01.563Z,97814.34
2022-09-30T02:11:14.315Z,97816.38
2022-09-30T02:12:23.773Z,97814.19
2022-09-30T02:13:40.425Z,97814.53
2022-09-30T02:15:23.070Z,97823.09
2022-09-30T02:17:07.737Z,97819.63
2022-09-30T02:18:39.155Z,97831.19
2022-09-30T02:19:58.927Z,97820.25
2022-09-30T02:21:04.648Z,97825.75
2022-09-30T02:22:26.268Z,97827.38
2022-09-30T02:23:42.474Z,97826.56
2022-09-30T02:24:48.984Z,97833.09
2022-09-30T02:26:10.203Z,97832.88
2022-09-30T02:27:45.397Z,97835.50
2022-09-30T02:28:58.032Z,97831.47
2022-09-30T02:30:04.211Z,97828.03
2022-09-30T02:31:11.037Z,97826.41
2022-09-30T02:32:23.368Z,97832.69
2022-09-30T02:33:59.613Z,97829.84
2022-09-30T02:35:10.416Z,97830.84
2022-09-30T02:36:47.000Z,97828.22
2022-09-30T02:37:57.614Z,97837.16
2022-09-30T02:39:19.260Z,97838.16
2022-09-30T02:40:48.104Z,97839.78
2022-09-30T02:42:00.319Z,97844.69
2022-09-30T02:43:04.627Z,97844.09
2022-09-30T02:44:06.922Z,97844.31
2022-09-30T02:45:16.298Z,97841.69
2022-09-30T02:46:41.102Z,97831.72
2022-09-30T02:48:03.992Z,97831.94
2022-09-30T02:49:24.722Z,97842.47
2022-09-30T02:50:48.908Z,97840.88
2022-09-30T02:52:12.459Z,97830.50
2022-09-30T02:53:23.625Z,97830.69
2022-09-30T02:54:57.823Z,97837.78
2022-09-30T02:56:45.918Z,97842.69
2022-09-30T02:58:11.261Z,97843.06
2022-09-30T02:59:14.659Z,97847.38
2022-09-30T03:00:16.678Z,97841.09
2022-09-30T03:01:18.589Z,97844.75
2022-09-30T03:02:21.686Z,97847.38
2022-09-30T03:03:37.818Z,97850.81
2022-09-30T03:04:41.853Z,97847.38
2022-09-30T03:05:44.684Z,97849.22
2022-09-30T03:06:46.663Z,97847.59
2022-09-30T03:07:48.483Z,97844.97
2022-09-30T03:08:53.014Z,97849.22
2022-09-30T03:10:01.171Z,97848.41
2022-09-30T03:11:04.296Z,97848.63
2022-09-30T03:12:51.340Z,97846.13
2022-09-30T03:13:56.013Z,97845.75
2022-09-30T03:15:03.453Z,97847.00
2022-09-30T03:16:34.386Z,97844.97
2022-09-30T03:17:47.343Z,97843.75
2022-09-30T03:19:09.979Z,97849.44
2022-09-30T03:20:27.191Z,97842.72
2022-09-30T03:21:55.566Z,97848.00
2022-09-30T03:23:36.099Z,97850.63
2022-09-30T03:25:09.630Z,97857.72
2022-09-30T03:26:53.055Z,97860.00
2022-09-30T03:28:19.325Z,97854.13
2022-09-30T03:29:35.088Z,97862.84
2022-09-30T03:30:59.250Z,97859.41
2022-09-30T03:32:11.053Z,97860.44
2022-09-30T03:33:22.275Z,97863.28
2022-09-30T03:35:01.488Z,97872.59
2022-09-30T03:36:24.935Z,97871.78
2022-09-30T03:37:34.105Z,97872.41
2022-09-30T03:38:58.180Z,97871.19
2022-09-30T03:40:18.565Z,97875.66
2022-09-30T03:41:33.908Z,97878.47
2022-09-30T03:42:48.214Z,97877.66
2022-09-30T03:44:37.202Z,97876.66
2022-09-30T03:46:01.078Z,97877.88
2022-09-30T03:47:11.084Z,97879.91
2022-09-30T03:48:15.061Z,97880.56
2022-09-30T03:49:25.404Z,97873.25
2022-09-30T03:50:29.385Z,97880.56
2022-09-30T03:51:35.497Z,97879.75
2022-09-30T03:52:38.373Z,97887.03
2022-09-30T03:53:46.552Z,97881.75
2022-09-30T03:54:54.042Z,97877.53
2022-09-30T03:55:55.916Z,97887.88
2022-09-30T03:56:58.518Z,97883.84
2022-09-30T03:58:00.443Z,97885.69
2022-09-30T03:59:02.253Z,97882.25
2022-09-30T04:00:06.971Z,97884.03
2022-09-30T04:01:21.401Z,97882.25
2022-09-30T04:02:24.662Z,97890.94
2022-09-30T04:03:27.772Z,97890.53
2022-09-30T04:04:29.501Z,97894.41
2022-09-30T04:05:31.234Z,97894.41
2022-09-30T04:06:33.015Z,97899.25
2022-09-30T04:07:35.925Z,97904.31
2022-09-30T04:08:37.637Z,97905.97
2022-09-30T04:09:39.955Z,97902.69
2022-09-30T04:10:46.170Z,97905.97
2022-09-30T04:11:47.894Z,97902.47
2022-09-30T04:12:53.949Z,97902.91
2022-09-30T04:13:55.805Z,97909.78
2022-09-30T04:14:57.579Z,97901.09
2022-09-30T04:15:59.302Z,97907.97
2022-09-30T04:17:02.966Z,97912.44
2022-09-30T04:18:05.553Z,97908.78
2022-09-30T04:19:07.325Z,97916.69
2022-09-30T04:20:09.202Z,97912.03
2022-09-30T04:21:14.452Z,97914.66
2022-09-30T04:22:16.485Z,97912.84
2022-09-30T04:23:18.221Z,97918.13
2022-09-30T04:24:24.687Z,97919.53
2022-09-30T04:25:27.954Z,97918.13
2022-09-30T04:26:29.749Z,97925.00
2022-09-30T04:27:31.554Z,97918.94
2022-09-30T04:28:34.507Z,97918.13
2022-09-30T04:29:36.229Z,97917.31
2022-09-30T04:30:38.738Z,97915.66
2022-09-30T04:31:40.518Z,97920.75
2022-09-30T04:32:45.365Z,97916.06
2022-09-30T04:33:47.254Z,97911.63
2022-09-30T04:34:49.007Z,97909.19
2022-09-30T04:35:57.701Z,97904.50
2022-09-30T04:36:59.427Z,97907.38
2022-09-30T04:38:01.924Z,97899.66
2022-09-30T04:39:04.869Z,97909.19
2022-09-30T04:40:07.288Z,97904.94
2022-09-30T04:41:16.236Z,97907.56
2022-09-30T04:42:18.304Z,97913.03
2022-09-30T04:43:23.204Z,97911.41
2022-09-30T04:44:24.936Z,97915.06
2022-09-30T04:45:27.010Z,97914.47
2022-09-30T04:46:28.815Z,97911.84
2022-09-30T04:47:31.250Z,97907.78
2022-09-30T04:48:33.011Z,97920.97
2022-09-30T04:49:34.743Z,97915.69
2022-09-30T04:50:36.703Z,97923.59
2022-09-30T04:51:38.525Z,97922.59
2022-09-30T04:52:43.843Z,97926.84
2022-09-30T04:53:46.729Z,97923.59
2022-09-30T04:54:48.483Z,97920.97
2022-09-30T04:55:50.828Z,97929.91
2022-09-30T04:56:52.639Z,97931.50
2022-09-30T04:57:54.386Z,97932.75
2022-09-30T04:58:56.094Z,97929.91
2022-09-30T04:59:57.812Z,97922.00
2022-09-30T05:01:08.948Z,97924.63
2022-09-30T05:02:12.733Z,97934.56
2022-09-30T05:03:14.970Z,97936.56
2022-09-30T05:04:16.781Z,97933.34
2022-09-30T05:05:19.170Z,97936.56
2022-09-30T05:06:20.913Z,97942.88
2022-09-30T05:07:22.771Z,97946.09
2022-09-30T05:08:24.682Z,97948.13
2022-09-30T05:09:26.427Z,97952.59
2022-09-30T05:10:28.529Z,97944.09
2022-09-30T05:11:30.250Z,97949.16
2022-09-30T05:12:32.104Z,97944.69
2022-09-30T05:13:38.117Z,97950.56
2022-09-30T05:14:39.842Z,97950.78
2022-09-30T05:15:41.578Z,97948.13
2022-09-30T05:16:43.309Z,97951.78
2022-09-30T05:17:45.064Z,97953.41
2022-09-30T05:18:47.217Z,97953.63
2022-09-30T05:19:49.010Z,97951.78
2022-09-30T05:20:51.991Z,97956.03
2022-09-30T05:21:53.721Z,97957.88
2022-09-30T05:22:56.644Z,97957.06
2022-09-30T05:23:58.439Z,97952.59
2022-09-30T05:25:00.166Z,97959.69
2022-09-30T05:26:03.368Z,97955.66
2022-09-30T05:27:05.084Z,97963.94
2022-09-30T05:28:07.823Z,97963.94
2022-09-30T05:29:10.680Z,97963.94
2022-09-30T05:30:12.430Z,97968.41
2022-09-30T05:31:14.241Z,97970.22
2022-09-30T05:32:16.529Z,97974.69
2022-09-30T05:33:18.261Z,97975.50
2022-09-30T05:34:21.261Z,97980.78
2022-09-30T05:35:23.090Z,97982.00
2022-09-30T05:36:25.065Z,97978.34
2022-09-30T05:37:26.787Z,97979.38
2022-09-30T05:38:28.861Z,97978.34
2022-09-30T05:39:30.680Z,97977.16
2022-09-30T05:40:32.511Z,97978.97
2022-09-30T05:41:34.244Z,97974.13
2022-09-30T05:42:36.888Z,97988.31
2022-09-30T05:43:40.955Z,97979.59
2022-09-30T05:44:42.739Z,97984.44
2022-09-30T05:45:53.587Z,97986.28
2022-09-30T05:46:55.582Z,97984.44
2022-09-30T05:47:57.558Z,97988.91
2022-09-30T05:48:59.302Z,97983.84
2022-09-30T05:50:01.063Z,97985.88
2022-09-30T05:51:03.239Z,97992.16
2022-09-30T05:52:05.190Z,97990.53
2022-09-30T05:53:06.889Z,97983.03
2022-09-30T05:54:11.273Z,97992.34
2022-09-30T05:55:13.862Z,97986.09
2022-09-30T05:56:15.612Z,97993.16
2022-09-30T05:57:17.480Z,97985.88
2022-09-30T05:58:20.313Z,97988.91
2022-09-30T05:59:22.056Z,97988.13
2022-09-30T06:00:23.876Z,97988.69
2022-09-30T06:01:25.646Z,97994.38
2022-09-30T06:02:27.498Z,97989.53
2022-09-30T06:03:29.272Z,97992.97
2022-09-30T06:04:31.170Z,97988.72
2022-09-30T06:05:32.887Z,97995.59
2022-09-30T06:06:34.642Z,98002.28
2022-09-30T06:07:38.581Z,97992.75
2022-09-30T06:08:41.381Z,97992.75
2022-09-30T06:09:43.445Z,97993.16
2022-09-30T06:10:45.560Z,97996.81
2022-09-30T06:11:47.922Z,97997.00
2022-09-30T06:12:49.817Z,97999.81
2022-09-30T06:13:52.312Z,97997.19
2022-09-30T06:14:55.203Z,98000.44
2022-09-30T06:16:02.221Z,98003.69
2022-09-30T06:17:06.381Z,98000.25
2022-09-30T06:18:09.827Z,98006.34
2022-09-30T06:19:11.656Z,98007.75
2022-09-30T06:20:13.433Z,98007.53
2022-09-30T06:21:17.970Z,98006.53
2022-09-30T06:22:19.685Z,98017.47
2022-09-30T06:23:21.485Z,98014.81
2022-09-30T06:24:23.545Z,98011.81
2022-09-30T06:25:25.249Z,98022.13
2022-09-30T06:26:27.747Z,98022.13
2022-09-30T06:27:29.477Z,98021.13
2022-09-30T06:28:34.947Z,98030.63
2022-09-30T06:29:36.931Z,98027.59
2022-09-30T06:30:38.666Z,98030.44
2022-09-30T06:31:40.702Z,98032.06
2022-09-30T06:32:42.568Z,98037.13
2022-09-30T06:33:44.368Z,98036.13
2022-09-30T06:34:46.439Z,98039.16
2022-09-30T06:35:48.345Z,98038.16
2022-09-30T06:36:50.150Z,98034.28
2022-09-30T06:37:52.458Z,98043.59
2022-09-30T06:38:54.234Z,98039.97
2022-09-30T06:39:56.018Z,98038.97
2022-09-30T06:41:00.798Z,98039.38
2022-09-30T06:42:02.528Z,98045.44
2022-09-30T06:43:05.124Z,98051.09
2022-09-30T06:44:06.865Z,98049.50
2022-09-30T06:45:11.766Z,98045.63
2022-09-30T06:46:22.001Z,98061.06
2022-09-30T06:47:26.267Z,98056.19
2022-09-30T06:48:37.540Z,98054.16
2022-09-30T06:49:49.287Z,98057.22
2022-09-30T06:51:01.575Z,98061.25
2022-09-30T06:52:04.194Z,98061.66
2022-09-30T06:53:08.853Z,98064.69
2022-09-30T06:54:11.296Z,98055.78
2022-09-30T06:55:13.050Z,98065.31
2022-09-30T06:56:18.200Z,98066.72
2022-09-30T06:57:22.534Z,98069.75
2022-09-30T06:58:25.011Z,98064.47
2022-09-30T06:59:27.100Z,98052.31
2022-09-30T07:00:28.977Z,98062.66
2022-09-30T07:01:30.725Z,98059.44
2022-09-30T07:02:34.371Z,98057.81
2022-09-30T07:03:36.539Z,98056.78
2022-09-30T07:04:38.240Z,98056.38
2022-09-30T07:05:39.955Z,98060.63
2022-09-30T07:06:42.218Z,98054.13
2022-09-30T07:07:44.120Z,98059.19
2022-09-30T07:08:45.861Z,98059.19
2022-09-30T07:09:48.045Z,98060.84
2022-09-30T07:10:49.854Z,98064.69
2022-09-30T07:11:51.600Z,98062.03
2022-09-30T07:12:54.133Z,98074.00
2022-09-30T07:13:55.863Z,98069.31
2022-09-30T07:14:59.026Z,98072.59
2022-09-30T07:16:01.018Z,98075.00
2022-09-30T07:17:04.511Z,98077.66
2022-09-30T07:18:06.658Z,98086.75
2022-09-30T07:19:10.052Z,98092.63
2022-09-30T07:20:11.852Z,98079.44
2022-09-30T07:21:16.146Z,98083.50
2022-09-30T07:22:29.797Z,98082.69
2022-09-30T07:23:32.120Z,98086.13
2022-09-30T07:24:34.851Z,98085.13
2022-09-30T07:25:36.558Z,98087.78
2022-09-30T07:26:39.497Z,98094.66
2022-09-30T07:27:41.695Z,98086.34
2022-09-30T07:28:43.801Z,98089.78
2022-09-30T07:30:07.557Z,98095.66
2022-09-30T07:31:34.319Z,98090.97
2022-09-30T07:32:37.186Z,98087.31
2022-09-30T07:33:40.000Z,98085.34
2022-09-30T07:34:44.114Z,98088.78
2022-09-30T07:35:53.980Z,98093.44
2022-09-30T07:36:55.691Z,98091.22
2022-09-30T07:37:58.456Z,98094.47
2022-09-30T07:39:05.685Z,98094.47
2022-09-30T07:40:09.479Z,98100.13
2022-09-30T07:41:24.373Z,98097.91
2022-09-30T07:42:26.687Z,98101.34
2022-09-30T07:43:37.793Z,98102.75
2022-09-30T07:44:41.766Z,98102.53
2022-09-30T07:45:43.549Z,98106.38
2022-09-30T07:46:46.031Z,98104.59
2022-09-30T07:47:53.281Z,98098.06
2022-09-30T07:49:01.354Z,98102.13
2022-09-30T07:50:03.993Z,98100.06
2022-09-30T07:51:05.910Z,98099.88
2022-09-30T07:52:08.696Z,98100.28
2022-09-30T07:53:10.422Z,98100.06
2022-09-30T07:54:18.422Z,98109.19
2022-09-30T07:55:20.138Z,98104.69
2022-09-30T07:56:24.748Z,98100.66
2022-09-30T07:57:26.466Z,98111.81
2022-09-30T07:58:28.162Z,98118.50
2022-09-30T07:59:34.058Z,98114.63
2022-09-30T08:00:42.558Z,98121.28
2022-09-30T08:01:45.694Z,98124.34
2022-09-30T08:02:47.462Z,98119.66
2022-09-30T08:03:55.694Z,98130.41
2022-09-30T08:04:57.423Z,98131.03
2022-09-30T08:06:08.770Z,98119.81
2022-09-30T08:07:12.022Z,98122.03
2022-09-30T08:08:15.587Z,98120.19
2022-09-30T08:09:21.134Z,98122.44
2022-09-30T08:10:23.112Z,98117.75
2022-09-30T08:11:26.881Z,98122.38
2022-09-30T08:12:28.586Z,98125.44
2022-09-30T08:13:30.314Z,98120.75
2022-09-30T08:14:32.156Z,98129.06
2022-09-30T08:15:34.565Z,98131.25
2022-09-30T08:16:36.336Z,98134.31
2022-09-30T08:17:38.091Z,98141.00
2022-09-30T08:18:39.800Z,98136.09
2022-09-30T08:19:44.505Z,98141.97
2022-09-30T08:20:46.260Z,98148.47
2022-09-30T08:21:49.121Z,98146.41
2022-09-30T08:22:55.362Z,98146.00
2022-09-30T08:23:58.229Z,98148.03
2022-09-30T08:24:59.940Z,98154.13
2022-09-30T08:26:11.492Z,98150.63
2022-09-30T08:27:13.227Z,98150.63
2022-09-30T08:28:15.343Z,98156.31
2022-09-30T08:29:20.692Z,98156.09
2022-09-30T08:30:26.982Z,98146.09
2022-09-30T08:31:29.722Z,98148.31
2022-09-30T08:32:32.307Z,98148.91
2022-09-30T08:33:34.514Z,98147.69
2022-09-30T08:34:36.260Z,98149.09
2022-09-30T08:35:37.976Z,98150.50
2022-09-30T08:36:39.881Z,98155.56
2022-09-30T08:37:41.790Z,98149.06
2022-09-30T08:38:44.232Z,98149.88
2022-09-30T08:39:48.211Z,98152.88
2022-09-30T08:41:07.985Z,98158.72
2022-09-30T08:43:17.504Z,98158.06
2022-09-30T08:44:40.307Z,98158.44
2022-09-30T08:45:47.701Z,98159.91
2022-09-30T08:47:33.071Z,98156.19
2022-09-30T08:48:44.906Z,98161.69
2022-09-30T08:50:30.928Z,98166.69
2022-09-30T08:51:49.512Z,98160.41
2022-09-30T08:52:58.194Z,98165.47
2022-09-30T08:54:05.662Z,98168.72
2022-09-30T08:55:18.265Z,98171.13
2022-09-30T08:56:28.085Z,98168.63
2022-09-30T08:57:43.852Z,98174.53
2022-09-30T08:58:54.295Z,98172.25
2022-09-30T09:00:06.519Z,98167.78
2022-09-30T09:01:33.186Z,98161.41
2022-09-30T09:02:57.345Z,98164.41
2022-09-30T09:04:02.459Z,98159.13
2022-09-30T09:05:07.532Z,98163.97
2022-09-30T09:06:52.651Z,98170.41
2022-09-30T09:08:00.403Z,98174.69
2022-09-30T09:09:20.915Z,98169.59
2022-09-30T09:10:40.485Z,98171.97
2022-09-30T09:12:13.665Z,98165.81
2022-09-30T09:13:42.077Z,98169.03
2022-09-30T09:15:15.050Z,98171.03
2022-09-30T09:16:47.900Z,98167.72
2022-09-30T09:18:23.763Z,98166.03
2022-09-30T09:19:38.391Z,98158.66
2022-09-30T09:20:53.518Z,98164.34
2022-09-30T09:22:01.733Z,98167.56
2022-09-30T09:23:08.994Z,98168.38
2022-09-30T09:24:25.911Z,98163.00
2022-09-30T09:25:28.581Z,98154.22
2022-09-30T09:26:36.747Z,98158.31
2022-09-30T09:27:52.724Z,98160.28
2022-09-30T09:29:08.324Z,98157.16
2022-09-30T09:30:15.605Z,98153.28
2022-09-30T09:31:20.443Z,98160.78
2022-09-30T09:32:22.307Z,98159.53
2022-09-30T09:33:30.577Z,98157.22
2022-09-30T09:34:33.942Z,98160.69
2022-09-30T09:35:51.508Z,98154.50
2022-09-30T09:37:19.940Z,98156.63
2022-09-30T09:38:51.181Z,98160.00
2022-09-30T09:40:32.443Z,98153.97
2022-09-30T09:42:21.400Z,98151.09
2022-09-30T09:44:01.151Z,98152.75
2022-09-30T09:45:40.067Z,98155.09
2022-09-30T09:46:50.851Z,98155.09
2022-09-30T09:47:53.661Z,98155.81
2022-09-30T09:49:29.447Z,98162.88
2022-09-30T09:50:39.869Z,98158.50
2022-09-30T09:51:51.077Z,98165.00
2022-09-30T09:53:20.336Z,98156.72
2022-09-30T09:54:25.477Z,98156.19
2022-09-30T09:55:27.243Z,98159.69
2022-09-30T09:56:33.507Z,98154.53
2022-09-30T09:57:35.231Z,98153.56
2022-09-30T09:58:37.285Z,98157.31
2022-09-30T09:59:58.429Z,98156.16
2022-09-30T10:01:32.610Z,98156.13
2022-09-30T10:02:34.540Z,98159.81
2022-09-30T10:03:37.419Z,98154.59
2022-09-30T10:04:50.956Z,98156.94
2022-09-30T10:06:05.277Z,98158.41
2022-09-30T10:07:15.092Z,98157.44
2022-09-30T10:08:23.786Z,98149.97
2022-09-30T10:09:30.226Z,98153.50
2022-09-30T10:10:56.103Z,98153.91
2022-09-30T10:12:06.744Z,98144.66
2022-09-30T10:13:24.761Z,98149.28
2022-09-30T10:14:26.671Z,98146.53
2022-09-30T10:15:28.547Z,98152.28
2022-09-30T10:16:36.569Z,98152.63
2022-09-30T10:17:39.492Z,98150.06
2022-09-30T10:18:41.872Z,98151.78
2022-09-30T10:20:22.942Z,98147.88
2022-09-30T10:21:28.202Z,98147.75
2022-09-30T10:22:32.790Z,98149.72
2022-09-30T10:23:39.974Z,98154.25
2022-09-30T10:24:41.748Z,98151.66
2022-09-30T10:26:15.569Z,98153.84
2022-09-30T10:27:34.799Z,98156.19
2022-09-30T10:28:54.250Z,98143.47
2022-09-30T10:29:56.371Z,98145.41
2022-09-30T10:31:24.142Z,98147.66
2022-09-30T10:32:28.126Z,98152.06
2022-09-30T10:33:46.884Z,98146.66
2022-09-30T10:35:01.797Z,98142.16
2022-09-30T10:36:08.826Z,98150.06
2022-09-30T10:37:16.958Z,98141.75
2022-09-30T10:38:19.041Z,98144.22
2022-09-30T10:39:33.796Z,98139.63
2022-09-30T10:40:35.796Z,98140.44
2022-09-30T10:41:39.028Z,98142.72
2022-09-30T10:42:46.144Z,98149.25
2022-09-30T10:43:53.150Z,98143.84
2022-09-30T10:45:37.052Z,98130.72
2022-09-30T10:46:41.935Z,98141.75
2022-09-30T10:47:48.960Z,98146.25
2022-09-30T10:48:54.716Z,98149.75
2022-09-30T10:50:17.099Z,98154.34
2022-09-30T10:51:27.860Z,98153.34
2022-09-30T10:52:36.323Z,98156.78
2022-09-30T10:53:43.903Z,98152.56
2022-09-30T10:54:54.701Z,98156.47
2022-09-30T10:55:57.742Z,98158.66
2022-09-30T10:57:03.900Z,98159.56
2022-09-30T10:58:51.505Z,98162.06
2022-09-30T11:00:21.755Z,98159.63
2022-09-30T11:01:35.275Z,98155.50
2022-09-30T11:02:58.694Z,98154.59
2022-09-30T11:04:38.950Z,98154.50
2022-09-30T11:05:43.695Z,98160.44
2022-09-30T11:06:51.636Z,98155.78
2022-09-30T11:08:23.806Z,98160.03
2022-09-30T11:09:47.818Z,98155.66
2022-09-30T11:11:17.350Z,98153.69
2022-09-30T11:13:10.701Z,98153.38
2022-09-30T11:14:27.500Z,98160.38
2022-09-30T11:16:00.586Z,98150.81
2022-09-30T11:17:23.680Z,98156.44
2022-09-30T11:18:50.160Z,98153.09
2022-09-30T11:20:29.804Z,98153.56
2022-09-30T11:21:46.582Z,98152.09
2022-09-30T11:23:36.396Z,98162.94
2022-09-30T11:24:45.420Z,98161.97
2022-09-30T11:26:16.967Z,98158.84
2022-09-30T11:27:42.972Z,98153.34
2022-09-30T11:29:24.347Z,98150.22
2022-09-30T11:31:04.891Z,98143.31
2022-09-30T11:32:30.198Z,98151.16
2022-09-30T11:33:59.084Z,98145.81
2022-09-30T11:35:42.816Z,98147.53
2022-09-30T11:37:05.177Z,98145.19
2022-09-30T11:38:38.677Z,98149.22
2022-09-30T11:40:32.773Z,98146.34
2022-09-30T11:41:51.957Z,98141.25
2022-09-30T11:43:44.753Z,98149.34
2022-09-30T11:44:49.078Z,98152.81
2022-09-30T11:46:37.682Z,98159.31
2022-09-30T11:48:16.019Z,98164.38
2022-09-30T11:49:46.326Z,98159.56
2022-09-30T11:51:24.827Z,98156.13
2022-09-30T11:52:47.429Z,98156.66
2022-09-30T11:54:07.116Z,98154.81
2022-09-30T11:55:48.341Z,98155.34
2022-09-30T11:56:55.845Z,98152.13
2022-09-30T11:58:36.185Z,98157.78
2022-09-30T11:59:43.614Z,98150.78
2022-09-30T12:00:54.886Z,98152.41
2022-09-30T12:02:02.873Z,98148.09
2022-09-30T12:03:17.289Z,98147.56
2022-09-30T12:04:41.240Z,98156.41
2022-09-30T12:05:51.998Z,98140.06
2022-09-30T12:07:17.484Z,98141.69
2022-09-30T12:08:59.820Z,98141.94
2022-09-30T12:10:16.068Z,98143.53
2022-09-30T12:11:49.666Z,98141.94
2022-09-30T12:13:02.775Z,98145.41
2022-09-30T12:14:20.859Z,98153.16
2022-09-30T12:15:26.217Z,98155.03
2022-09-30T12:16:33.948Z,98148.03
2022-09-30T12:18:10.367Z,98153.94
2022-09-30T12:19:25.225Z,98155.22
2022-09-30T12:20:44.195Z,98152.53
2022-09-30T12:22:03.836Z,98150.09
2022-09-30T12:23:20.985Z,98143.13
2022-09-30T12:24:36.763Z,98151.66
2022-09-30T12:25:53.119Z,98155.13
2022-09-30T12:26:55.216Z,98156.69
2022-09-30T12:28:42.833Z,98150.25
2022-09-30T12:30:19.133Z,98153.41
2022-09-30T12:31:44.459Z,98157.41
2022-09-30T12:33:19.694Z,98162.19
2022-09-30T12:34:42.976Z,98155.94
2022-09-30T12:36:24.477Z,98161.50
2022-09-30T12:37:50.695Z,98157.72
2022-09-30T12:39:44.534Z,98162.22
2022-09-30T12:41:25.067Z,98155.75
2022-09-30T12:42:52.819Z,98153.31
2022-09-30T12:44:45.386Z,98151.09
2022-09-30T12:46:15.059Z,98156.91
2022-09-30T12:47:45.878Z,98150.16
2022-09-30T12:48:58.602Z,98154.66
2022-09-30T12:50:06.930Z,98150.84
2022-09-30T12:51:10.645Z,98154.28
2022-09-30T12:52:21.403Z,98155.06
2022-09-30T12:53:32.909Z,98158.22
2022-09-30T12:54:52.128Z,98154.19
2022-09-30T12:55:55.154Z,98153.09
2022-09-30T12:57:03.752Z,98155.44
2022-09-30T12:58:20.317Z,98150.88
2022-09-30T12:59:31.317Z,98152.19
2022-09-30T13:00:37.592Z,98152.69
2022-09-30T13:01:42.373Z,98145.75
2022-09-30T13:03:08.920Z,98157.72
2022-09-30T13:04:30.613Z,98154.25
2022-09-30T13:05:32.386Z,98155.03
2022-09-30T13:06:46.338Z,98149.94
2022-09-30T13:08:06.496Z,98152.63
2022-09-30T13:09:17.001Z,98155.50
2022-09-30T13:10:31.782Z,98161.91
2022-09-30T13:11:42.748Z,98159.50
2022-09-30T13:12:47.584Z,98152.53
2022-09-30T13:14:12.446Z,98157.63
2022-09-30T13:15:29.440Z,98153.34
2022-09-30T13:17:03.343Z,98157.38
2022-09-30T13:18:20.319Z,98153.09
2022-09-30T13:19:34.702Z,98150.44
2022-09-30T13:21:08.436Z,98152.03
2022-09-30T13:22:23.993Z,98149.38
2022-09-30T13:23:51.586Z,98157.19
2022-09-30T13:25:05.264Z,98152.66
2022-09-30T13:26:28.975Z,98164.41
2022-09-30T13:28:27.241Z,98166.28
2022-09-30T13:29:35.213Z,98162.81
2022-09-30T13:30:39.943Z,98160.66
2022-09-30T13:31:50.933Z,98165.72
2022-09-30T13:32:57.390Z,98161.97
2022-09-30T13:34:01.817Z,98160.66
2022-09-30T13:35:33.545Z,98153.53
2022-09-30T13:36:43.740Z,98158.28
2022-09-30T13:37:45.453Z,98159.59
2022-09-30T13:39:25.834Z,98158.28
2022-09-30T13:40:49.738Z,98164.94
2022-09-30T13:42:00.863Z,98161.72
2022-09-30T13:43:04.517Z,98158.16
2022-09-30T13:44:12.351Z,98166.19
2022-09-30T13:45:31.245Z,98162.44
2022-09-30T13:46:46.969Z,98159.22
2022-09-30T13:48:10.752Z,98170.72
2022-09-30T13:49:29.368Z,98175.50
2022-09-30T13:50:40.151Z,98168.53
2022-09-30T13:51:42.484Z,98168.53
2022-09-30T13:52:53.643Z,98166.13
2022-09-30T13:54:06.444Z,98169.59
2022-09-30T13:55:33.412Z,98178.97
2022-09-30T13:56:40.513Z,98176.00
2022-09-30T13:58:24.861Z,98173.34
2022-09-30T13:59:53.298Z,98165.59
2022-09-30T14:01:22.286Z,98171.72
2022-09-30T14:03:05.318Z,98175.44
2022-09-30T14:04:24.886Z,98174.06
2022-09-30T14:05:51.365Z,98176.50